createdAt,value
2018-07-23T00:01:56.517Z,4.07
2018-07-23T00:04:24.770Z,3.80
2018-07-23T00:06:52.989Z,3.83
2018-07-23T00:09:21.205Z,3.97
2018-07-23T00:11:49.421Z,3.60
2018-07-23T00:14:17.633Z,3.60
2018-07-23T00:16:45.900Z,3.90
2018-07-23T00:19:14.158Z,3.70
2018-07-23T00:21:42.377Z,4.03
2018-07-23T00:24:10.692Z,3.63
2018-07-23T00:26:38.921Z,3.63
2018-07-23T00:29:07.584Z,3.20
2018-07-23T00:31:35.828Z,3.83
2018-07-23T00:34:04.037Z,3.50
2018-07-23T00:36:32.255Z,3.40
2018-07-23T00:39:00.472Z,3.80
2018-07-23T00:41:29.418Z,3.30
2018-07-23T00:43:57.656Z,3.73
2018-07-23T00:46:25.928Z,4.00
2018-07-23T00:48:54.160Z,3.50
2018-07-23T00:51:22.374Z,3.73
2018-07-23T00:53:50.596Z,3.90
2018-07-23T00:56:18.816Z,3.97
2018-07-23T00:58:47.038Z,3.30
2018-07-23T01:01:15.370Z,3.97
2018-07-23T01:03:43.576Z,4.30
2018-07-23T01:06:11.800Z,3.53
2018-07-23T01:08:40.053Z,4.27
2018-07-23T01:11:08.274Z,4.10
2018-07-23T01:13:36.496Z,3.57
2018-07-23T01:16:04.746Z,3.60
2018-07-23T01:18:32.961Z,4.17
2018-07-23T01:21:01.176Z,4.13
2018-07-23T01:23:29.413Z,4.37
2018-07-23T01:25:57.644Z,4.67
2018-07-23T01:28:25.860Z,4.27
2018-07-23T01:30:54.072Z,5.20
2018-07-23T01:33:22.305Z,4.80
2018-07-23T01:35:50.541Z,5.30
2018-07-23T01:38:18.996Z,5.00
2018-07-23T01:40:47.205Z,4.50
2018-07-23T01:43:15.424Z,4.50
2018-07-23T01:45:43.637Z,4.90
2018-07-23T01:48:11.925Z,5.03
2018-07-23T01:50:40.182Z,4.20
2018-07-23T01:53:08.400Z,4.30
2018-07-23T01:55:36.608Z,4.63
2018-07-23T01:58:04.858Z,4.43
2018-07-23T02:00:33.109Z,4.37
2018-07-23T02:03:01.359Z,5.03
2018-07-23T02:05:29.557Z,5.20
2018-07-23T02:07:57.786Z,5.10
2018-07-23T02:10:26.025Z,5.37
2018-07-23T02:12:54.257Z,5.50
2018-07-23T02:15:22.496Z,5.60
2018-07-23T02:17:50.717Z,6.20
2018-07-23T02:20:18.961Z,6.27
2018-07-23T02:22:47.165Z,6.33
2018-07-23T02:25:15.392Z,5.73
2018-07-23T02:27:43.605Z,5.83
2018-07-23T02:30:11.833Z,5.83
2018-07-23T02:32:40.116Z,6.47
2018-07-23T02:35:08.324Z,5.60
2018-07-23T02:37:36.584Z,5.30
2018-07-23T02:40:04.841Z,5.33
2018-07-23T02:42:33.061Z,5.47
2018-07-23T02:45:01.305Z,5.23
2018-07-23T02:47:29.561Z,4.80
2018-07-23T02:49:57.773Z,5.23
2018-07-23T02:52:25.993Z,5.60
2018-07-23T02:54:54.217Z,5.33
2018-07-23T02:57:22.436Z,5.67
2018-07-23T02:59:50.797Z,5.20
2018-07-23T03:02:19.037Z,5.47
2018-07-23T03:04:47.245Z,5.87
2018-07-23T03:07:15.459Z,5.60
2018-07-23T03:09:43.862Z,5.13
2018-07-23T03:12:12.079Z,4.67
2018-07-23T03:14:40.317Z,4.77
2018-07-23T03:17:08.544Z,5.40
2018-07-23T03:19:36.837Z,5.37
2018-07-23T03:22:05.073Z,5.37
2018-07-23T03:24:33.289Z,6.67
2018-07-23T03:27:01.505Z,5.50
2018-07-23T03:29:29.760Z,5.33
2018-07-23T03:31:58.048Z,5.83
2018-07-23T03:34:26.360Z,5.27
2018-07-23T03:36:54.603Z,5.47
2018-07-23T03:39:22.820Z,5.80
2018-07-23T03:41:51.069Z,5.00
2018-07-23T03:44:19.308Z,5.30
2018-07-23T03:46:47.529Z,5.50
2018-07-23T03:49:15.868Z,5.17
2018-07-23T03:51:44.105Z,5.30
2018-07-23T03:54:12.337Z,5.20
2018-07-23T03:56:40.572Z,5.50
2018-07-23T03:59:08.817Z,5.43
2018-07-23T04:01:37.044Z,5.67
2018-07-23T04:04:05.269Z,5.47
2018-07-23T04:06:33.523Z,5.03
2018-07-23T04:09:01.725Z,5.70
2018-07-23T04:11:30.061Z,5.30
2018-07-23T04:13:58.306Z,6.07
2018-07-23T04:16:26.521Z,5.00
2018-07-23T04:18:54.761Z,5.80
2018-07-23T04:21:22.977Z,6.20
2018-07-23T04:23:51.189Z,5.93
2018-07-23T04:26:19.421Z,5.60
2018-07-23T04:28:47.643Z,5.47
2018-07-23T04:31:15.864Z,6.27
2018-07-23T04:33:44.101Z,6.50
2018-07-23T04:36:12.317Z,6.70
2018-07-23T04:38:40.538Z,6.20
2018-07-23T04:41:08.749Z,6.07
2018-07-23T04:43:37.091Z,6.20
2018-07-23T04:46:05.624Z,6.87
2018-07-23T04:48:34.424Z,6.53
2018-07-23T04:51:02.666Z,6.10
2018-07-23T04:53:31.300Z,7.80
2018-07-23T04:55:59.912Z,6.93
2018-07-23T04:58:28.124Z,6.20
2018-07-23T05:00:56.454Z,8.70
2018-07-23T05:03:24.789Z,7.80
2018-07-23T05:05:53.020Z,8.53
2018-07-23T05:08:21.240Z,8.13
2018-07-23T05:10:49.508Z,8.50
2018-07-23T05:13:17.740Z,7.40
2018-07-23T05:15:45.953Z,9.10
2018-07-23T05:18:14.160Z,10.40
2018-07-23T05:20:42.381Z,10.53
2018-07-23T05:23:10.600Z,11.43
2018-07-23T05:25:38.837Z,11.87
2018-07-23T05:28:07.956Z,11.77
2018-07-23T05:30:36.262Z,13.60
2018-07-23T05:33:04.493Z,12.97
2018-07-23T05:35:32.713Z,14.53
2018-07-23T05:38:00.948Z,12.37
2018-07-23T05:40:29.213Z,14.20
2018-07-23T05:42:57.445Z,13.03
2018-07-23T05:45:25.681Z,13.83
2018-07-23T05:47:53.908Z,14.17
2018-07-23T05:50:22.124Z,14.80
2018-07-23T05:52:50.370Z,14.93
2018-07-23T05:55:18.692Z,13.80
2018-07-23T05:57:46.984Z,14.07
2018-07-23T06:00:15.196Z,14.00
2018-07-23T06:02:43.421Z,13.27
2018-07-23T06:05:11.665Z,14.80
2018-07-23T06:07:39.964Z,14.23
2018-07-23T06:10:08.215Z,14.33
2018-07-23T06:12:36.452Z,14.70
2018-07-23T06:15:05.481Z,16.13
2018-07-23T06:17:33.737Z,14.40
2018-07-23T06:20:01.950Z,11.87
2018-07-23T06:22:30.173Z,13.47
2018-07-23T06:24:58.433Z,14.83
2018-07-23T06:27:26.674Z,13.03
2018-07-23T06:29:54.992Z,13.10
2018-07-23T06:32:23.153Z,14.97
2018-07-23T06:34:51.382Z,12.83
2018-07-23T06:37:19.608Z,15.40
2018-07-23T06:39:48.041Z,14.67
2018-07-23T06:42:16.292Z,15.00
2018-07-23T06:44:44.545Z,14.20
2018-07-23T06:47:12.905Z,14.27
2018-07-23T06:49:41.132Z,13.43
2018-07-23T06:52:09.367Z,15.37
2018-07-23T06:54:37.613Z,16.70
2018-07-23T06:57:06.134Z,15.13
2018-07-23T06:59:34.749Z,17.00
2018-07-23T07:02:03.009Z,21.23
2018-07-23T07:04:31.225Z,20.73
2018-07-23T07:06:59.469Z,20.70
2018-07-23T07:09:27.697Z,20.13
2018-07-23T07:11:55.965Z,19.97
2018-07-23T07:14:24.192Z,19.70
2018-07-23T07:16:52.425Z,19.73
2018-07-23T07:19:20.677Z,19.90
2018-07-23T07:21:48.916Z,18.33
2018-07-23T07:24:17.136Z,19.93
2018-07-23T07:26:45.776Z,18.47
2018-07-23T07:29:14.369Z,19.20
2018-07-23T07:31:42.604Z,21.00
2018-07-23T07:34:10.849Z,18.90
2018-07-23T07:36:39.071Z,21.17
2018-07-23T07:39:10.433Z,22.07
2018-07-23T07:41:39.025Z,19.77
2018-07-23T07:44:07.677Z,18.73
2018-07-23T07:46:36.040Z,16.43
2018-07-23T07:49:04.432Z,18.40
2018-07-23T07:51:32.653Z,17.57
2018-07-23T07:54:00.864Z,17.67
2018-07-23T07:56:29.136Z,19.20
2018-07-23T07:58:57.357Z,21.43
2018-07-23T08:01:25.593Z,18.17
2018-07-23T08:03:53.809Z,18.43
2018-07-23T08:06:22.017Z,16.10
2018-07-23T08:08:50.380Z,16.97
2018-07-23T08:11:18.610Z,15.70
2018-07-23T08:13:47.101Z,15.80
2018-07-23T08:16:15.505Z,17.60
2018-07-23T08:18:43.773Z,15.93
2018-07-23T08:21:11.989Z,16.57
2018-07-23T08:23:40.276Z,15.30
2018-07-23T08:26:08.509Z,17.57
2018-07-23T08:28:36.732Z,15.77
2018-07-23T08:31:04.989Z,14.80
2018-07-23T08:33:33.217Z,16.43
2018-07-23T08:36:01.509Z,14.27
2018-07-23T08:38:29.769Z,14.10
2018-07-23T08:40:57.993Z,15.43
2018-07-23T08:43:26.217Z,13.10
2018-07-23T08:45:54.433Z,14.53
2018-07-23T08:48:22.684Z,14.70
2018-07-23T08:50:50.908Z,13.33
2018-07-23T08:53:19.145Z,10.53
2018-07-23T08:55:47.388Z,12.63
2018-07-23T08:58:15.620Z,11.80
2018-07-23T09:00:43.861Z,11.27
2018-07-23T09:03:12.228Z,11.40
2018-07-23T09:05:40.522Z,11.83
2018-07-23T09:08:08.720Z,11.63
2018-07-23T09:10:36.940Z,10.30
2018-07-23T09:13:05.182Z,10.13
2018-07-23T09:15:33.460Z,11.07
2018-07-23T09:18:01.717Z,11.33
2018-07-23T09:20:29.949Z,9.87
2018-07-23T09:22:58.176Z,9.57
2018-07-23T09:25:30.560Z,11.93
2018-07-23T09:27:58.797Z,12.17
2018-07-23T09:30:32.297Z,10.53
2018-07-23T09:33:00.541Z,11.03
2018-07-23T09:35:28.780Z,10.50
2018-07-23T09:37:57.041Z,10.80
2018-07-23T09:40:25.267Z,9.70
2018-07-23T09:42:53.498Z,9.30
2018-07-23T09:45:21.720Z,8.23
2018-07-23T09:47:49.977Z,8.80
2018-07-23T09:50:18.220Z,10.70
2018-07-23T09:52:46.508Z,9.37
2018-07-23T09:55:14.713Z,7.73
2018-07-23T09:57:42.945Z,9.07
2018-07-23T10:00:11.152Z,8.20
2018-07-23T10:02:39.368Z,8.53
2018-07-23T10:05:07.596Z,11.40
2018-07-23T10:07:35.842Z,11.00
2018-07-23T10:10:04.139Z,9.37
2018-07-23T10:12:32.354Z,8.73
2018-07-23T10:15:00.590Z,8.67
2018-07-23T10:17:28.796Z,8.13
2018-07-23T10:19:56.992Z,8.93
2018-07-23T10:22:25.209Z,7.63
2018-07-23T10:24:53.412Z,7.57
2018-07-23T10:27:21.641Z,8.13
2018-07-23T10:29:49.848Z,7.73
2018-07-23T10:32:18.068Z,6.20
2018-07-23T10:34:46.275Z,7.77
2018-07-23T10:37:14.534Z,7.40
2018-07-23T10:39:42.757Z,7.13
2018-07-23T10:42:10.975Z,6.30
2018-07-23T10:44:39.209Z,5.83
2018-07-23T10:47:07.421Z,6.00
2018-07-23T10:49:35.664Z,6.30
2018-07-23T10:52:03.884Z,7.23
2018-07-23T10:54:32.097Z,6.23
2018-07-23T10:57:00.385Z,6.10
2018-07-23T10:59:28.593Z,7.60
2018-07-23T11:01:56.880Z,7.93
2018-07-23T11:04:25.097Z,7.20
2018-07-23T11:06:53.304Z,6.00
2018-07-23T11:09:21.578Z,6.20
2018-07-23T11:11:49.786Z,7.03
2018-07-23T11:14:18.017Z,5.97
2018-07-23T11:16:46.244Z,5.90
2018-07-23T11:19:14.496Z,6.63
2018-07-23T11:21:42.723Z,6.37
2018-07-23T11:24:10.929Z,7.30
2018-07-23T11:26:39.247Z,6.57
2018-07-23T11:29:07.417Z,5.70
2018-07-23T11:31:35.629Z,5.67
2018-07-23T11:34:03.826Z,5.40
2018-07-23T11:36:32.058Z,5.27
2018-07-23T11:39:00.413Z,7.30
2018-07-23T11:41:28.688Z,5.60
2018-07-23T11:43:56.865Z,6.67
2018-07-23T11:46:25.314Z,7.13
2018-07-23T11:48:53.324Z,6.57
2018-07-23T11:51:21.536Z,6.90
2018-07-23T11:53:49.761Z,8.67
2018-07-23T11:56:18.013Z,9.13
2018-07-23T11:58:46.280Z,6.50
2018-07-23T12:01:14.513Z,6.77
2018-07-23T12:03:42.728Z,5.93
2018-07-23T12:06:10.961Z,6.50
2018-07-23T12:08:39.176Z,6.27
2018-07-23T12:11:07.425Z,5.63
2018-07-23T12:13:35.734Z,6.73
2018-07-23T12:16:03.952Z,6.00
2018-07-23T12:18:32.184Z,6.70
2018-07-23T12:21:00.441Z,6.20
2018-07-23T12:23:28.731Z,6.43
2018-07-23T12:25:57.000Z,7.33
2018-07-23T12:28:25.232Z,5.73
2018-07-23T12:30:53.482Z,6.33
2018-07-23T12:33:21.717Z,6.07
2018-07-23T12:35:49.941Z,7.07
2018-07-23T12:38:18.309Z,6.50
2018-07-23T12:40:46.529Z,6.07
2018-07-23T12:43:14.751Z,6.40
2018-07-23T12:45:42.981Z,5.60
2018-07-23T12:48:11.241Z,6.33
2018-07-23T12:50:39.511Z,6.27
2018-07-23T12:53:07.761Z,6.10
2018-07-23T12:55:35.985Z,5.80
2018-07-23T12:58:04.204Z,4.97
2018-07-23T13:00:32.412Z,4.73
2018-07-23T13:03:00.721Z,4.40
2018-07-23T13:05:31.941Z,4.93
2018-07-23T13:08:01.520Z,4.40
2018-07-23T13:10:29.760Z,5.37
2018-07-23T13:12:58.001Z,4.57
2018-07-23T13:15:26.269Z,4.70
2018-07-23T13:17:54.565Z,3.90
2018-07-23T13:20:23.268Z,5.30
2018-07-23T13:22:51.508Z,4.10
2018-07-23T13:25:19.887Z,4.00
2018-07-23T13:27:48.100Z,3.83
2018-07-23T13:30:16.341Z,4.03
2018-07-23T13:32:45.821Z,3.77
2018-07-23T13:35:14.362Z,3.63
2018-07-23T13:37:43.220Z,3.30
2018-07-23T13:40:11.446Z,3.40
2018-07-23T13:42:39.663Z,3.27
2018-07-23T13:45:07.977Z,3.20
2018-07-23T13:47:36.242Z,2.90
2018-07-23T13:50:04.554Z,3.50
2018-07-23T13:52:32.769Z,3.50
2018-07-23T13:55:01.017Z,3.20
2018-07-23T13:57:29.253Z,3.50
2018-07-23T13:59:57.476Z,3.37
2018-07-23T14:02:25.717Z,3.70
2018-07-23T14:04:53.951Z,3.97
2018-07-23T14:07:22.205Z,4.20
2018-07-23T14:09:50.436Z,3.40
2018-07-23T14:12:18.856Z,3.40
2018-07-23T14:14:47.080Z,4.30
2018-07-23T14:17:15.353Z,3.30
2018-07-23T14:19:43.800Z,3.33
2018-07-23T14:22:12.053Z,3.63
2018-07-23T14:24:40.353Z,3.67
2018-07-23T14:27:08.560Z,3.57
2018-07-23T14:29:36.856Z,3.30
2018-07-23T14:32:05.097Z,3.73
2018-07-23T14:34:33.327Z,4.00
2018-07-23T14:37:01.606Z,4.13
2018-07-23T14:39:29.844Z,3.90
2018-07-23T14:41:58.078Z,4.00
2018-07-23T14:44:26.349Z,4.10
2018-07-23T14:46:54.621Z,4.23
2018-07-23T14:49:23.045Z,4.27
2018-07-23T14:51:51.262Z,4.20
2018-07-23T14:54:19.505Z,3.70
2018-07-23T14:56:47.780Z,3.70
2018-07-23T14:59:16.087Z,4.13
2018-07-23T15:01:44.342Z,4.03
2018-07-23T15:04:12.581Z,4.20
2018-07-23T15:06:40.809Z,4.40
2018-07-23T15:09:09.988Z,4.47
2018-07-23T15:11:38.268Z,3.87
2018-07-23T15:14:06.553Z,3.90
2018-07-23T15:16:34.944Z,4.57
2018-07-23T15:19:03.165Z,4.80
2018-07-23T15:21:31.392Z,3.70
2018-07-23T15:23:59.613Z,4.90
2018-07-23T15:26:27.886Z,4.43
2018-07-23T15:28:56.123Z,3.77
2018-07-23T15:31:24.340Z,4.97
2018-07-23T15:33:52.588Z,4.23
2018-07-23T15:36:20.853Z,4.53
2018-07-23T15:38:49.102Z,3.97
2018-07-23T15:41:17.317Z,4.33
2018-07-23T15:43:45.566Z,4.50
2018-07-23T15:46:13.822Z,4.80
2018-07-23T15:48:41.992Z,5.00
2018-07-23T15:51:10.285Z,4.93
2018-07-23T15:53:38.540Z,4.80
2018-07-23T15:56:07.036Z,4.67
2018-07-23T15:58:35.293Z,4.50
2018-07-23T16:01:03.568Z,4.03
2018-07-23T16:03:31.893Z,4.17
2018-07-23T16:06:00.128Z,4.70
2018-07-23T16:08:28.369Z,4.43
2018-07-23T16:10:56.632Z,4.40
2018-07-23T16:13:24.844Z,5.00
2018-07-23T16:15:53.092Z,4.40
2018-07-23T16:18:21.349Z,4.53
2018-07-23T16:20:49.560Z,4.13
2018-07-23T16:23:17.827Z,4.20
2018-07-23T16:25:46.042Z,4.50
2018-07-23T16:28:14.333Z,4.33
2018-07-23T16:30:42.729Z,4.63
2018-07-23T16:33:10.957Z,4.33
2018-07-23T16:35:39.184Z,4.13
2018-07-23T16:38:07.461Z,4.43
2018-07-23T16:40:35.707Z,3.80
2018-07-23T16:43:04.001Z,4.20
2018-07-23T16:45:32.341Z,4.40
2018-07-23T16:48:00.550Z,4.77
2018-07-23T16:50:28.805Z,4.17
2018-07-23T16:52:57.032Z,4.53
2018-07-23T16:55:25.249Z,5.03
2018-07-23T16:57:53.466Z,4.37
2018-07-23T17:00:21.681Z,4.77
2018-07-23T17:02:49.925Z,4.60
2018-07-23T17:05:18.148Z,4.50
2018-07-23T17:07:46.384Z,5.00
2018-07-23T17:10:14.593Z,4.00
2018-07-23T17:12:42.825Z,4.53
2018-07-23T17:15:11.105Z,4.63
2018-07-23T17:17:39.316Z,4.50
2018-07-23T17:20:07.677Z,4.10
2018-07-23T17:22:36.105Z,4.23
2018-07-23T17:25:04.393Z,5.17
2018-07-23T17:27:32.629Z,4.57
2018-07-23T17:30:00.860Z,5.03
2018-07-23T17:32:29.104Z,4.40
2018-07-23T17:34:57.344Z,4.70
2018-07-23T17:37:25.580Z,4.10
2018-07-23T17:39:53.793Z,4.10
2018-07-23T17:42:22.008Z,4.70
2018-07-23T17:44:50.321Z,4.53
2018-07-23T17:47:18.476Z,4.37
2018-07-23T17:49:46.710Z,4.63
2018-07-23T17:52:14.920Z,4.90
2018-07-23T17:54:43.160Z,4.50
2018-07-23T17:57:11.416Z,4.93
2018-07-23T17:59:39.704Z,4.30
2018-07-23T18:02:07.952Z,5.17
2018-07-23T18:04:36.245Z,4.63
2018-07-23T18:07:04.744Z,4.77
2018-07-23T18:09:32.960Z,4.57
2018-07-23T18:12:01.228Z,5.30
2018-07-23T18:14:29.458Z,4.87
2018-07-23T18:16:57.676Z,4.77
2018-07-23T18:19:25.980Z,4.67
2018-07-23T18:21:54.220Z,4.80
2018-07-23T18:24:22.460Z,4.73
2018-07-23T18:26:50.668Z,4.77
2018-07-23T18:29:18.953Z,5.07
2018-07-23T18:31:47.219Z,4.80
2018-07-23T18:34:15.462Z,5.10
2018-07-23T18:36:43.766Z,4.33
2018-07-23T18:39:12.993Z,4.97
2018-07-23T18:41:41.928Z,5.07
2018-07-23T18:44:10.389Z,4.77
2018-07-23T18:46:38.645Z,5.07
2018-07-23T18:49:20.697Z,4.87
2018-07-23T18:51:51.061Z,5.10
2018-07-23T18:54:20.949Z,5.20
2018-07-23T18:56:51.404Z,5.07
2018-07-23T18:59:19.604Z,5.07
2018-07-23T19:01:48.896Z,5.00
2018-07-23T19:04:17.165Z,5.20
2018-07-23T19:06:45.476Z,4.90
2018-07-23T19:09:14.925Z,5.20
2018-07-23T19:11:45.133Z,5.60
2018-07-23T19:14:14.133Z,5.50
2018-07-23T19:16:42.753Z,5.57
2018-07-23T19:19:11.089Z,5.70
2018-07-23T19:21:39.368Z,5.50
2018-07-23T19:24:07.637Z,5.30
2018-07-23T19:26:35.893Z,6.00
2018-07-23T19:29:04.115Z,5.50
2018-07-23T19:31:32.386Z,9.07
2018-07-23T19:34:01.929Z,6.43
2018-07-23T19:36:30.465Z,5.87
2018-07-23T19:38:59.069Z,5.70
2018-07-23T19:41:27.873Z,5.27
2018-07-23T19:43:56.085Z,5.77
2018-07-23T19:46:24.452Z,5.37
2018-07-23T19:48:52.780Z,7.03
2018-07-23T19:51:21.012Z,7.07
2018-07-23T19:53:49.273Z,6.27
2018-07-23T19:56:17.501Z,6.03
2018-07-23T19:58:45.765Z,7.00
2018-07-23T20:01:14.018Z,7.33
2018-07-23T20:03:42.233Z,9.67
2018-07-23T20:06:10.470Z,7.37
2018-07-23T20:08:38.772Z,7.27
2018-07-23T20:11:07.372Z,7.60
2018-07-23T20:13:35.577Z,7.60
2018-07-23T20:16:03.853Z,7.80
2018-07-23T20:18:32.085Z,7.77
2018-07-23T20:21:00.351Z,7.27
2018-07-23T20:23:28.614Z,7.40
2018-07-23T20:25:56.951Z,7.80
2018-07-23T20:28:25.189Z,6.40
2018-07-23T20:30:53.412Z,5.87
2018-07-23T20:33:21.628Z,5.77
2018-07-23T20:35:49.892Z,6.27
2018-07-23T20:38:18.134Z,6.33
2018-07-23T20:40:46.357Z,5.83
2018-07-23T20:43:14.573Z,5.23
2018-07-23T20:45:42.839Z,5.60
2018-07-23T20:48:11.124Z,6.83
2018-07-23T20:50:39.347Z,6.03
2018-07-23T20:53:07.625Z,6.13
2018-07-23T20:55:35.853Z,5.90
2018-07-23T20:58:04.109Z,7.10
2018-07-23T21:00:32.389Z,6.10
2018-07-23T21:03:00.649Z,5.97
2018-07-23T21:05:28.861Z,6.23
2018-07-23T21:07:57.376Z,6.07
2018-07-23T21:10:25.605Z,6.33
2018-07-23T21:12:53.899Z,6.10
2018-07-23T21:15:22.113Z,6.30
2018-07-23T21:17:50.424Z,6.60
2018-07-23T21:20:18.673Z,6.93
2018-07-23T21:22:46.884Z,6.63
2018-07-23T21:25:15.177Z,5.93
2018-07-23T21:27:43.394Z,6.83
2018-07-23T21:30:11.597Z,6.50
2018-07-23T21:32:39.865Z,6.53
2018-07-23T21:35:08.099Z,6.53
2018-07-23T21:37:36.349Z,6.60
2018-07-23T21:40:05.041Z,6.17
2018-07-23T21:42:33.273Z,7.10
2018-07-23T21:45:01.534Z,6.73
2018-07-23T21:47:29.789Z,6.93
2018-07-23T21:49:58.074Z,6.60
2018-07-23T21:52:26.381Z,6.53
2018-07-23T21:54:54.605Z,7.80
2018-07-23T21:57:22.813Z,6.97
2018-07-23T21:59:51.213Z,6.93
2018-07-23T22:02:19.453Z,6.37
2018-07-23T22:04:47.700Z,7.13
2018-07-23T22:07:15.936Z,7.20
2018-07-23T22:09:44.281Z,6.87
2018-07-23T22:12:12.496Z,7.17
2018-07-23T22:14:40.708Z,7.23
2018-07-23T22:17:08.985Z,7.57
2018-07-23T22:19:37.209Z,7.13
2018-07-23T22:22:05.473Z,7.60
2018-07-23T22:24:33.680Z,7.40
2018-07-23T22:27:02.037Z,8.00
2018-07-23T22:29:30.301Z,7.07
2018-07-23T22:31:58.524Z,7.20
2018-07-23T22:34:26.744Z,6.83
2018-07-23T22:36:55.092Z,7.53
2018-07-23T22:39:23.348Z,7.43
2018-07-23T22:41:51.557Z,7.40
2018-07-23T22:44:19.812Z,7.53
2018-07-23T22:46:48.013Z,7.27
2018-07-23T22:49:16.280Z,7.50
2018-07-23T22:51:44.492Z,6.93
2018-07-23T22:54:12.752Z,7.07
2018-07-23T22:56:41.014Z,6.40
2018-07-23T22:59:09.232Z,7.07
2018-07-23T23:01:37.461Z,6.97
2018-07-23T23:04:05.725Z,7.37
2018-07-23T23:06:33.941Z,6.80
2018-07-23T23:09:02.173Z,6.97
2018-07-23T23:11:30.377Z,7.37
2018-07-23T23:13:58.597Z,7.20
2018-07-23T23:16:26.818Z,6.90
2018-07-23T23:18:55.037Z,6.53
2018-07-23T23:21:23.261Z,6.70
2018-07-23T23:23:51.485Z,7.03
2018-07-23T23:26:19.797Z,6.33
2018-07-23T23:28:48.041Z,6.63
2018-07-23T23:31:16.268Z,7.57
2018-07-23T23:33:44.500Z,7.27
2018-07-23T23:36:12.726Z,7.43
2018-07-23T23:38:40.997Z,6.80
2018-07-23T23:41:09.237Z,7.30
2018-07-23T23:43:37.472Z,7.60
2018-07-23T23:46:05.694Z,7.03
2018-07-23T23:48:33.924Z,7.37
2018-07-23T23:51:02.173Z,7.40
2018-07-23T23:53:30.413Z,7.77
2018-07-23T23:55:58.665Z,7.40
2018-07-23T23:58:26.993Z,7.47
